createdAt,value
2023-06-10T00:00:31.085Z,2.17
2023-06-10T00:02:51.610Z,2.58
2023-06-10T00:05:11.988Z,2.35
2023-06-10T00:07:32.206Z,2.45
2023-06-10T00:09:52.288Z,2.33
2023-06-10T00:12:12.403Z,3.20
2023-06-10T00:14:32.560Z,2.72
2023-06-10T00:16:52.804Z,3.28
2023-06-10T00:19:16.121Z,2.75
2023-06-10T00:21:40.444Z,3.05
2023-06-10T00:24:03.443Z,3.45
2023-06-10T00:28:45.509Z,2.67
2023-06-10T00:31:06.323Z,3.07
2023-06-10T00:33:26.870Z,2.53
2023-06-10T00:35:47.319Z,2.15
2023-06-10T00:38:07.455Z,2.40
2023-06-10T00:40:27.773Z,2.53
2023-06-10T00:42:48.116Z,2.33
2023-06-10T00:45:08.738Z,2.95
2023-06-10T00:47:29.770Z,2.25
2023-06-10T00:49:51.341Z,2.45
2023-06-10T00:52:12.306Z,3.08
2023-06-10T00:54:33.212Z,2.35
2023-06-10T00:56:54.382Z,2.47
2023-06-10T00:59:15.392Z,2.13
2023-06-10T01:01:38.151Z,2.47
2023-06-10T01:03:59.108Z,2.75
2023-06-10T01:06:47.766Z,2.45
2023-06-10T01:09:15.464Z,2.85
2023-06-10T01:11:37.706Z,2.03
2023-06-10T01:14:00.043Z,2.60
2023-06-10T01:18:42.539Z,2.42
2023-06-10T01:21:03.217Z,2.53
2023-06-10T01:23:23.527Z,2.40
2023-06-10T01:25:55.642Z,2.33
2023-06-10T01:28:16.313Z,2.90
2023-06-10T01:30:44.132Z,3.08
2023-06-10T01:33:05.982Z,3.78
2023-06-10T01:35:29.717Z,3.78
2023-06-10T01:37:51.177Z,3.60
2023-06-10T01:40:12.090Z,3.25
2023-06-10T01:42:32.591Z,3.58
2023-06-10T01:44:53.006Z,3.28
2023-06-10T01:47:13.330Z,3.58
2023-06-10T01:49:33.345Z,2.97
2023-06-10T01:51:53.502Z,3.50
2023-06-10T01:54:14.052Z,3.58
2023-06-10T01:56:34.725Z,3.67
2023-06-10T01:58:59.293Z,4.05
2023-06-10T02:01:19.500Z,2.55
2023-06-10T02:03:39.955Z,3.28
2023-06-10T02:06:00.442Z,2.83
2023-06-10T02:08:20.927Z,3.17
2023-06-10T02:10:41.178Z,2.53
2023-06-10T02:13:01.561Z,4.55
2023-06-10T02:15:21.916Z,3.75
2023-06-10T02:17:42.343Z,5.90
2023-06-10T02:20:04.552Z,4.70
2023-06-10T02:22:25.718Z,3.67
2023-06-10T02:24:46.024Z,3.83
2023-06-10T02:27:09.269Z,3.65
2023-06-10T02:29:29.990Z,3.80
2023-06-10T02:31:50.428Z,7.40
2023-06-10T02:34:10.976Z,4.65
2023-06-10T02:36:31.990Z,2.60
2023-06-10T02:38:52.090Z,3.10
2023-06-10T02:41:12.267Z,2.15
2023-06-10T02:43:32.320Z,2.83
2023-06-10T02:45:52.522Z,3.67
2023-06-10T02:48:13.128Z,3.55
2023-06-10T02:50:33.236Z,3.40
2023-06-10T02:52:53.560Z,3.20
2023-06-10T02:55:13.865Z,3.13
2023-06-10T02:57:34.232Z,3.13
2023-06-10T02:59:54.353Z,2.75
2023-06-10T03:02:14.360Z,3.30
2023-06-10T03:04:34.481Z,4.35
2023-06-10T03:06:54.744Z,4.63
2023-06-10T03:09:15.285Z,4.03
2023-06-10T03:11:35.494Z,4.30
2023-06-10T03:13:56.089Z,4.60
2023-06-10T03:16:16.667Z,5.38
2023-06-10T03:18:37.142Z,3.92
2023-06-10T03:20:57.939Z,4.03
2023-06-10T03:23:18.880Z,3.08
2023-06-10T03:25:38.945Z,3.83
2023-06-10T03:27:59.182Z,3.72
2023-06-10T03:30:19.576Z,4.22
2023-06-10T03:32:39.671Z,5.18
2023-06-10T03:34:59.772Z,4.53
2023-06-10T03:37:20.150Z,4.70
2023-06-10T03:39:40.363Z,4.15
2023-06-10T03:42:00.440Z,5.80
2023-06-10T03:44:20.898Z,6.90
2023-06-10T03:46:40.953Z,6.22
2023-06-10T03:49:01.680Z,10.00
2023-06-10T03:51:21.926Z,7.55
2023-06-10T03:53:42.260Z,7.00
2023-06-10T03:56:02.384Z,7.47
2023-06-10T03:58:22.680Z,8.98
2023-06-10T04:00:42.982Z,8.15
2023-06-10T04:03:04.183Z,7.38
2023-06-10T04:05:24.589Z,10.48
2023-06-10T04:07:45.340Z,7.65
2023-06-10T04:10:06.673Z,6.78
2023-06-10T04:12:27.230Z,7.28
2023-06-10T04:14:47.482Z,5.40
2023-06-10T04:17:07.544Z,6.32
2023-06-10T04:19:28.970Z,5.53
2023-06-10T04:21:49.576Z,5.45
2023-06-10T04:24:09.889Z,6.60
2023-06-10T04:26:30.216Z,6.65
2023-06-10T04:28:50.915Z,5.45
2023-06-10T04:31:11.152Z,5.43
2023-06-10T04:33:31.891Z,7.30
2023-06-10T04:35:52.382Z,4.70
2023-06-10T04:38:13.158Z,5.72
2023-06-10T04:40:33.530Z,5.65
2023-06-10T04:42:53.914Z,6.38
2023-06-10T04:45:14.270Z,6.22
2023-06-10T04:47:34.916Z,4.85
2023-06-10T04:49:55.297Z,5.95
2023-06-10T04:52:18.331Z,6.53
2023-06-10T04:54:39.744Z,6.32
2023-06-10T04:57:00.730Z,6.25
2023-06-10T04:59:21.591Z,5.97
2023-06-10T05:01:41.986Z,5.22
2023-06-10T05:04:02.201Z,4.25
2023-06-10T05:06:22.782Z,4.05
2023-06-10T05:08:43.143Z,4.85
2023-06-10T05:11:03.209Z,5.65
2023-06-10T05:13:23.480Z,4.05
2023-06-10T05:15:45.013Z,4.78
2023-06-10T05:18:05.843Z,4.47
2023-06-10T05:20:27.058Z,4.00
2023-06-10T05:22:47.512Z,4.35
2023-06-10T05:25:08.343Z,3.63
2023-06-10T05:27:29.256Z,3.78
2023-06-10T05:29:50.011Z,4.22
2023-06-10T05:32:10.679Z,4.00
2023-06-10T05:34:31.368Z,5.13
2023-06-10T05:36:51.817Z,5.22
2023-06-10T05:39:12.186Z,5.15
2023-06-10T05:41:32.232Z,4.93
2023-06-10T05:43:52.423Z,6.85
2023-06-10T05:46:12.642Z,7.13
2023-06-10T05:48:32.950Z,5.95
2023-06-10T05:50:53.357Z,6.63
2023-06-10T05:53:15.415Z,5.55
2023-06-10T05:55:36.524Z,6.38
2023-06-10T05:58:00.848Z,6.03
2023-06-10T06:00:21.362Z,6.32
2023-06-10T06:02:44.358Z,5.70
2023-06-10T06:05:05.046Z,5.85
2023-06-10T06:07:25.467Z,5.35
2023-06-10T06:09:45.637Z,5.65
2023-06-10T06:12:07.859Z,5.95
2023-06-10T06:14:35.265Z,4.82
2023-06-10T06:16:55.777Z,4.20
2023-06-10T06:19:16.379Z,5.75
2023-06-10T06:21:36.786Z,5.07
2023-06-10T06:23:58.225Z,4.50
2023-06-10T06:26:18.947Z,5.07
2023-06-10T06:28:38.964Z,4.88
2023-06-10T06:30:59.587Z,5.10
2023-06-10T06:33:19.936Z,5.15
2023-06-10T06:35:41.691Z,4.45
2023-06-10T06:38:02.375Z,4.40
2023-06-10T06:40:22.741Z,5.47
2023-06-10T06:42:43.437Z,5.47
2023-06-10T06:45:03.935Z,5.00
2023-06-10T06:47:25.263Z,5.57
2023-06-10T06:49:48.235Z,5.10
2023-06-10T06:52:08.417Z,6.00
2023-06-10T06:54:28.455Z,5.45
2023-06-10T06:56:48.617Z,5.25
2023-06-10T06:59:08.908Z,5.70
2023-06-10T07:01:29.103Z,5.20
2023-06-10T07:03:49.329Z,4.85
2023-06-10T07:06:09.537Z,5.40
2023-06-10T07:08:29.960Z,5.55
2023-06-10T07:10:50.496Z,4.70
2023-06-10T07:13:13.725Z,6.03
2023-06-10T07:15:35.490Z,5.57
2023-06-10T07:17:56.066Z,5.07
2023-06-10T07:20:16.439Z,5.15
2023-06-10T07:22:36.696Z,5.50
2023-06-10T07:24:56.792Z,4.95
2023-06-10T07:27:16.888Z,5.10
2023-06-10T07:29:37.039Z,4.45
2023-06-10T07:31:57.251Z,4.97
2023-06-10T07:34:17.471Z,4.65
2023-06-10T07:36:37.974Z,5.07
2023-06-10T07:38:58.495Z,5.18
2023-06-10T07:41:19.957Z,4.93
2023-06-10T07:43:43.504Z,4.85
2023-06-10T07:46:04.271Z,4.75
2023-06-10T07:48:24.903Z,5.40
2023-06-10T07:50:45.573Z,4.38
2023-06-10T07:53:05.986Z,3.35
2023-06-10T07:55:29.277Z,3.55
2023-06-10T07:57:49.599Z,4.53
2023-06-10T08:00:10.032Z,3.03
2023-06-10T08:02:30.527Z,2.78
2023-06-10T08:04:51.006Z,1.92
2023-06-10T08:07:10.946Z,2.75
2023-06-10T08:09:31.508Z,1.77
2023-06-10T08:11:52.057Z,2.00
2023-06-10T08:14:12.653Z,1.95
2023-06-10T08:16:32.713Z,1.50
2023-06-10T08:18:55.690Z,1.98
2023-06-10T08:21:17.528Z,1.70
2023-06-10T08:23:37.971Z,1.75
2023-06-10T08:25:58.638Z,1.30
2023-06-10T08:28:19.337Z,1.23
2023-06-10T08:30:39.653Z,1.00
2023-06-10T08:33:00.501Z,1.00
2023-06-10T08:35:20.860Z,0.90
2023-06-10T08:37:41.208Z,1.08
2023-06-10T08:40:01.592Z,1.02
2023-06-10T08:42:21.932Z,1.10
2023-06-10T08:44:43.326Z,1.20
2023-06-10T08:47:04.573Z,1.55
2023-06-10T08:49:27.264Z,1.00
2023-06-10T08:51:51.738Z,1.00
2023-06-10T08:54:21.541Z,1.00
2023-06-10T08:56:42.469Z,1.08
2023-06-10T08:59:02.953Z,1.58
2023-06-10T09:01:24.644Z,0.98
2023-06-10T09:03:45.451Z,0.90
2023-06-10T09:06:08.717Z,1.00
2023-06-10T09:08:29.181Z,1.25
2023-06-10T09:10:50.236Z,0.80
2023-06-10T09:13:10.524Z,0.90
2023-06-10T09:15:30.719Z,0.90
2023-06-10T09:17:52.320Z,0.88
2023-06-10T09:20:13.380Z,1.20
2023-06-10T09:22:34.234Z,0.80
2023-06-10T09:25:11.267Z,1.05
2023-06-10T09:27:35.150Z,0.80
2023-06-10T09:29:58.216Z,1.10
2023-06-10T09:32:19.354Z,1.00
2023-06-10T09:34:41.025Z,0.80
2023-06-10T09:37:01.466Z,0.80
2023-06-10T09:39:21.617Z,0.80
2023-06-10T09:41:41.799Z,0.90
2023-06-10T09:44:03.027Z,0.90
2023-06-10T09:46:23.589Z,1.10
2023-06-10T09:48:44.849Z,1.23
2023-06-10T09:51:09.762Z,1.23
2023-06-10T09:53:34.365Z,0.90
2023-06-10T09:55:55.012Z,1.00
2023-06-10T09:58:15.836Z,1.15
2023-06-10T10:00:36.128Z,1.27
2023-06-10T10:02:56.553Z,1.10
2023-06-10T10:05:17.617Z,1.00
2023-06-10T10:07:38.224Z,1.13
2023-06-10T10:09:58.504Z,1.02
2023-06-10T10:12:18.747Z,1.30
2023-06-10T10:14:39.328Z,1.20
2023-06-10T10:17:01.509Z,0.90
2023-06-10T10:19:24.445Z,1.20
2023-06-10T10:21:45.919Z,1.10
2023-06-10T10:24:09.202Z,1.13
2023-06-10T10:26:30.428Z,1.73
2023-06-10T10:29:05.976Z,1.00
2023-06-10T10:31:28.662Z,1.20
2023-06-10T10:36:09.509Z,1.10
2023-06-10T10:38:29.827Z,1.13
2023-06-10T10:40:50.308Z,1.00
2023-06-10T10:43:11.425Z,1.20
2023-06-10T10:45:31.651Z,0.90
2023-06-10T10:47:58.809Z,1.30
2023-06-10T10:50:20.341Z,1.40
2023-06-10T10:52:53.989Z,1.60
2023-06-10T10:55:14.214Z,1.23
2023-06-10T10:57:39.943Z,1.70
2023-06-10T11:00:00.724Z,1.20
2023-06-10T11:02:43.428Z,1.27
2023-06-10T11:05:04.704Z,1.02
2023-06-10T11:07:30.447Z,1.40
2023-06-10T11:10:10.434Z,1.83
2023-06-10T11:12:43.837Z,1.00
2023-06-10T11:15:04.444Z,1.10
2023-06-10T11:17:25.356Z,1.60
2023-06-10T11:19:47.210Z,1.23
2023-06-10T11:22:10.239Z,1.33
2023-06-10T11:26:50.675Z,1.10
2023-06-10T11:29:11.170Z,1.08
2023-06-10T11:31:32.788Z,1.10
2023-06-10T11:33:54.366Z,1.35
2023-06-10T11:36:15.276Z,1.10
2023-06-10T11:38:35.376Z,0.93
2023-06-10T11:40:56.916Z,1.00
2023-06-10T11:43:20.986Z,1.00
2023-06-10T11:45:42.634Z,1.08
2023-06-10T11:48:03.418Z,0.98
2023-06-10T11:50:31.041Z,1.38
2023-06-10T11:52:51.589Z,1.10
2023-06-10T11:55:11.816Z,1.05
2023-06-10T11:57:35.159Z,1.02
2023-06-10T11:59:55.043Z,0.80
2023-06-10T12:02:19.642Z,1.00
2023-06-10T12:04:40.155Z,1.00
2023-06-10T12:07:00.274Z,0.90
2023-06-10T12:09:25.335Z,1.25
2023-06-10T12:11:50.495Z,0.90
2023-06-10T12:14:11.074Z,0.90
2023-06-10T12:16:31.488Z,1.58
2023-06-10T12:18:52.219Z,1.00
2023-06-10T12:21:26.013Z,0.90
2023-06-10T12:24:09.079Z,1.05
2023-06-10T12:28:52.081Z,1.15
2023-06-10T12:31:12.189Z,3.95
2023-06-10T12:33:32.409Z,1.13
2023-06-10T12:35:53.203Z,1.25
2023-06-10T12:38:14.558Z,1.15
2023-06-10T12:40:36.534Z,1.00
2023-06-10T12:42:57.189Z,0.90
2023-06-10T12:45:27.227Z,0.90
2023-06-10T12:47:47.916Z,1.08
2023-06-10T12:50:09.270Z,1.13
2023-06-10T12:52:29.968Z,1.00
2023-06-10T12:54:50.359Z,1.02
2023-06-10T12:57:11.350Z,1.33
2023-06-10T12:59:32.667Z,1.25
2023-06-10T13:01:53.445Z,1.25
2023-06-10T13:04:14.205Z,1.48
2023-06-10T13:06:37.103Z,1.60
2023-06-10T13:11:17.553Z,1.00
2023-06-10T13:13:38.388Z,1.02
2023-06-10T13:15:58.810Z,1.17
2023-06-10T13:18:19.391Z,0.90
2023-06-10T13:20:39.898Z,1.40
2023-06-10T13:23:00.145Z,1.42
2023-06-10T13:25:20.432Z,1.50
2023-06-10T13:27:42.415Z,1.25
2023-06-10T13:30:02.969Z,1.50
2023-06-10T13:32:23.103Z,1.23
2023-06-10T13:34:43.526Z,1.40
2023-06-10T13:37:05.357Z,1.10
2023-06-10T13:39:25.583Z,1.20
2023-06-10T13:41:45.973Z,1.17
2023-06-10T13:44:06.827Z,1.58
2023-06-10T13:46:28.033Z,1.52
2023-06-10T13:48:48.636Z,1.50
2023-06-10T13:51:10.021Z,1.40
2023-06-10T13:53:30.099Z,1.48
2023-06-10T13:55:50.326Z,1.40
2023-06-10T13:58:11.007Z,1.40
2023-06-10T14:00:31.284Z,1.17
2023-06-10T14:02:51.723Z,1.20
2023-06-10T14:05:12.505Z,1.40
2023-06-10T14:07:32.968Z,1.40
2023-06-10T14:09:53.532Z,1.67
2023-06-10T14:12:13.829Z,1.40
2023-06-10T14:14:34.885Z,1.42
2023-06-10T14:16:55.428Z,1.17
2023-06-10T14:19:15.786Z,1.75
2023-06-10T14:21:36.324Z,1.35
2023-06-10T14:23:56.541Z,1.25
2023-06-10T14:26:16.930Z,1.80
2023-06-10T14:28:37.092Z,1.42
2023-06-10T14:30:58.233Z,1.20
2023-06-10T14:33:18.500Z,1.40
2023-06-10T14:35:38.555Z,1.85
2023-06-10T14:37:59.085Z,1.85
2023-06-10T14:40:21.700Z,1.98
2023-06-10T14:42:42.059Z,1.73
2023-06-10T14:45:02.225Z,1.08
2023-06-10T14:47:22.595Z,1.40
2023-06-10T14:49:48.099Z,1.33
2023-06-10T14:52:09.687Z,1.20
2023-06-10T14:54:31.054Z,0.90
2023-06-10T14:56:51.661Z,1.00
2023-06-10T14:59:11.781Z,1.10
2023-06-10T15:01:32.049Z,1.48
2023-06-10T15:03:52.665Z,1.10
2023-06-10T15:06:12.814Z,1.10
2023-06-10T15:08:33.222Z,1.00
2023-06-10T15:10:53.566Z,1.30
2023-06-10T15:13:13.760Z,1.08
2023-06-10T15:15:33.796Z,1.38
2023-06-10T15:17:54.308Z,1.30
2023-06-10T15:20:14.437Z,0.90
2023-06-10T15:22:36.348Z,1.15
2023-06-10T15:27:18.432Z,0.80
2023-06-10T15:29:38.713Z,0.90
2023-06-10T15:31:58.780Z,1.05
2023-06-10T15:34:18.948Z,1.00
2023-06-10T15:36:39.214Z,1.00
2023-06-10T15:39:03.033Z,1.00
2023-06-10T15:41:23.354Z,1.00
2023-06-10T15:43:43.724Z,0.80
2023-06-10T15:46:03.907Z,0.90
2023-06-10T15:48:24.478Z,1.20
2023-06-10T15:50:45.667Z,1.10
2023-06-10T15:53:05.931Z,2.08
2023-06-10T15:55:27.112Z,0.85
2023-06-10T15:57:47.310Z,0.90
2023-06-10T16:00:08.300Z,0.80
2023-06-10T16:02:29.262Z,0.80
2023-06-10T16:04:49.425Z,0.80
2023-06-10T16:07:09.576Z,1.05
2023-06-10T16:09:29.679Z,0.80
2023-06-10T16:11:49.651Z,0.80
2023-06-10T16:14:09.862Z,0.80
2023-06-10T16:16:30.088Z,0.80
2023-06-10T16:18:50.189Z,0.80
2023-06-10T16:21:10.520Z,0.80
2023-06-10T16:23:30.668Z,0.90
2023-06-10T16:25:50.910Z,0.90
2023-06-10T16:28:11.359Z,1.10
2023-06-10T16:30:31.505Z,1.20
2023-06-10T16:32:51.983Z,1.00
2023-06-10T16:35:12.522Z,0.85
2023-06-10T16:37:33.300Z,0.90
2023-06-10T16:39:53.465Z,1.10
2023-06-10T16:42:13.517Z,0.70
2023-06-10T16:44:33.743Z,0.80
2023-06-10T16:46:55.456Z,0.80
2023-06-10T16:49:15.781Z,0.98
2023-06-10T16:51:36.149Z,1.10
2023-06-10T16:53:56.534Z,0.80
2023-06-10T16:56:16.492Z,0.90
2023-06-10T16:58:36.713Z,0.80
2023-06-10T17:00:58.717Z,0.90
2023-06-10T17:03:19.179Z,1.20
2023-06-10T17:05:39.294Z,0.90
2023-06-10T17:07:59.693Z,1.55
2023-06-10T17:10:19.877Z,0.80
2023-06-10T17:12:40.067Z,0.80
2023-06-10T17:15:00.289Z,0.80
2023-06-10T17:17:20.817Z,0.80
2023-06-10T17:19:40.772Z,0.90
2023-06-10T17:22:01.591Z,0.82
2023-06-10T17:24:22.326Z,0.80
2023-06-10T17:26:42.412Z,0.93
2023-06-10T17:29:02.826Z,0.80
2023-06-10T17:31:23.664Z,0.88
2023-06-10T17:33:44.295Z,0.88
2023-06-10T17:36:04.683Z,0.88
2023-06-10T17:38:25.121Z,0.90
2023-06-10T17:40:45.294Z,0.90
2023-06-10T17:43:06.030Z,0.90
2023-06-10T17:45:26.323Z,0.80
2023-06-10T17:47:46.831Z,0.90
2023-06-10T17:50:07.195Z,1.10
2023-06-10T17:52:27.691Z,1.00
2023-06-10T17:54:48.024Z,1.00
2023-06-10T17:57:08.493Z,1.25
2023-06-10T17:59:29.011Z,1.15
2023-06-10T18:01:49.230Z,0.90
2023-06-10T18:04:10.335Z,0.93
2023-06-10T18:06:30.982Z,0.80
2023-06-10T18:08:51.436Z,1.38
2023-06-10T18:11:11.497Z,1.35
2023-06-10T18:13:32.795Z,1.33
2023-06-10T18:15:53.146Z,1.27
2023-06-10T18:18:13.502Z,1.25
2023-06-10T18:20:34.120Z,0.95
2023-06-10T18:22:54.412Z,1.27
2023-06-10T18:25:14.896Z,1.00
2023-06-10T18:27:35.479Z,1.20
2023-06-10T18:29:55.652Z,1.10
2023-06-10T18:32:17.175Z,1.42
2023-06-10T18:34:37.595Z,1.70
2023-06-10T18:36:57.909Z,1.20
2023-06-10T18:39:18.137Z,1.13
2023-06-10T18:41:38.642Z,1.20
2023-06-10T18:44:01.963Z,1.63
2023-06-10T18:46:22.963Z,1.08
2023-06-10T18:48:45.487Z,1.30
2023-06-10T18:51:06.112Z,1.30
2023-06-10T18:53:26.265Z,1.20
2023-06-10T18:55:46.299Z,1.33
2023-06-10T18:58:06.509Z,1.20
2023-06-10T19:00:26.681Z,1.20
2023-06-10T19:02:47.520Z,1.60
2023-06-10T19:05:09.966Z,1.60
2023-06-10T19:07:30.755Z,1.40
2023-06-10T19:09:51.349Z,1.35
2023-06-10T19:12:12.123Z,1.30
2023-06-10T19:14:32.341Z,1.30
2023-06-10T19:16:52.470Z,1.50
2023-06-10T19:19:12.527Z,2.00
2023-06-10T19:21:32.835Z,1.85
2023-06-10T19:23:53.005Z,1.50
2023-06-10T19:26:15.833Z,1.58
2023-06-10T19:28:35.903Z,1.40
2023-06-10T19:30:55.959Z,1.25
2023-06-10T19:33:16.335Z,1.40
2023-06-10T19:35:36.902Z,1.20
2023-06-10T19:37:57.972Z,1.48
2023-06-10T19:40:18.090Z,1.05
2023-06-10T19:42:38.399Z,1.20
2023-06-10T19:44:58.428Z,1.20
2023-06-10T19:47:18.993Z,1.00
2023-06-10T19:49:39.301Z,1.45
2023-06-10T19:52:01.668Z,1.08
2023-06-10T19:54:21.696Z,1.25
2023-06-10T19:56:42.125Z,1.45
2023-06-10T19:59:02.624Z,1.50
2023-06-10T20:01:22.714Z,1.48
2023-06-10T20:03:43.102Z,1.33
2023-06-10T20:06:03.890Z,1.30
2023-06-10T20:08:25.797Z,1.27
2023-06-10T20:10:46.332Z,1.23
2023-06-10T20:13:06.978Z,1.00
2023-06-10T20:15:27.227Z,1.20
2023-06-10T20:17:47.826Z,1.40
2023-06-10T20:20:08.754Z,1.13
2023-06-10T20:22:29.015Z,1.35
2023-06-10T20:24:51.647Z,1.17
2023-06-10T20:27:11.902Z,1.20
2023-06-10T20:29:32.012Z,1.42
2023-06-10T20:31:52.599Z,1.63
2023-06-10T20:34:12.751Z,1.52
2023-06-10T20:36:33.118Z,1.40
2023-06-10T20:38:53.941Z,1.40
2023-06-10T20:41:14.501Z,2.22
2023-06-10T20:43:34.711Z,1.20
2023-06-10T20:45:56.756Z,1.30
2023-06-10T20:48:16.986Z,1.17
2023-06-10T20:50:37.066Z,1.10
2023-06-10T20:52:57.482Z,1.30
2023-06-10T20:55:17.613Z,1.45
2023-06-10T20:57:39.107Z,1.10
2023-06-10T20:59:59.470Z,1.20
2023-06-10T21:02:19.894Z,1.40
2023-06-10T21:04:40.388Z,1.50
2023-06-10T21:07:00.594Z,1.13
2023-06-10T21:09:20.633Z,1.48
2023-06-10T21:11:40.818Z,1.10
2023-06-10T21:14:01.125Z,1.20
2023-06-10T21:16:21.677Z,1.50
2023-06-10T21:18:41.965Z,1.40
2023-06-10T21:21:02.116Z,1.10
2023-06-10T21:23:22.395Z,1.50
2023-06-10T21:25:42.778Z,1.27
2023-06-10T21:28:03.590Z,1.45
2023-06-10T21:30:23.596Z,1.67
2023-06-10T21:32:45.194Z,1.30
2023-06-10T21:35:05.926Z,1.45
2023-06-10T21:37:26.333Z,1.20
2023-06-10T21:39:46.352Z,1.30
2023-06-10T21:42:06.662Z,1.75
2023-06-10T21:44:26.810Z,1.35
2023-06-10T21:46:47.266Z,1.50
2023-06-10T21:49:07.860Z,1.10
2023-06-10T21:51:28.412Z,1.20
2023-06-10T21:53:48.570Z,1.20
2023-06-10T21:56:08.826Z,1.40
2023-06-10T21:58:29.292Z,1.15
2023-06-10T22:00:49.577Z,1.48
2023-06-10T22:03:10.250Z,1.30
2023-06-10T22:05:30.664Z,1.27
2023-06-10T22:07:51.517Z,1.60
2023-06-10T22:10:11.933Z,1.40
2023-06-10T22:12:32.471Z,1.90
2023-06-10T22:14:53.125Z,1.40
2023-06-10T22:17:13.770Z,1.33
2023-06-10T22:19:38.880Z,2.08
2023-06-10T22:21:59.017Z,1.48
2023-06-10T22:24:19.297Z,1.45
2023-06-10T22:26:52.991Z,1.95
2023-06-10T22:29:15.531Z,1.50
2023-06-10T22:31:37.732Z,2.00
2023-06-10T22:33:58.332Z,1.95
2023-06-10T22:36:18.405Z,1.63
2023-06-10T22:38:38.730Z,1.88
2023-06-10T22:40:58.982Z,1.27
2023-06-10T22:43:19.151Z,1.52
2023-06-10T22:45:39.280Z,2.53
2023-06-10T22:47:59.805Z,1.85
2023-06-10T22:50:20.376Z,1.10
2023-06-10T22:52:40.891Z,1.80
2023-06-10T22:55:01.085Z,1.50
2023-06-10T22:57:21.249Z,1.23
2023-06-10T22:59:41.796Z,1.48
2023-06-10T23:02:02.001Z,1.95
2023-06-10T23:04:22.358Z,1.20
2023-06-10T23:06:43.411Z,1.30
2023-06-10T23:09:04.081Z,1.10
2023-06-10T23:11:24.093Z,1.30
2023-06-10T23:13:45.145Z,1.30
2023-06-10T23:16:05.740Z,1.38
2023-06-10T23:18:25.890Z,1.75
2023-06-10T23:20:47.012Z,2.22
2023-06-10T23:23:07.658Z,1.20
2023-06-10T23:25:28.518Z,1.70
2023-06-10T23:27:49.593Z,1.40
2023-06-10T23:30:10.614Z,1.33
2023-06-10T23:32:31.875Z,1.50
2023-06-10T23:34:52.762Z,1.20
2023-06-10T23:37:13.031Z,1.67
2023-06-10T23:39:33.488Z,3.28
2023-06-10T23:41:53.936Z,1.30
2023-06-10T23:44:15.130Z,1.52
2023-06-10T23:46:35.873Z,1.63
2023-06-10T23:48:56.569Z,2.38
2023-06-10T23:51:17.340Z,2.45
2023-06-10T23:53:37.785Z,1.60
2023-06-10T23:55:58.184Z,1.75
2023-06-10T23:58:18.834Z,2.17
